Time;durP1;ratioP1;P1;durP2;ratioP2;P2;SDS_P1;SDS_P2;PMS_P1;PMS_P2;Temp;Humidity;BMP_temperature;BMP_pressure;BME280_temperature;BME280_humidity;BME280_pressure;Samples;Min_cycle;Max_cycle;Signal;HPM_P1;HPM_P2
2022/09/28 00:00:20;;;;;;;0.70;0.70;;;;;;;18.29;100.00;98810.38;5067732;28;20286;-71
2022/09/28 00:02:48;;;;;;;0.60;0.60;;;;;;;18.70;100.00;98877.09;5066154;28;20203;-71
2022/09/28 00:05:15;;;;;;;0.70;0.70;;;;;;;18.58;100.00;98891.56;5065995;28;20293;-71
2022/09/28 00:07:42;;;;;;;0.60;0.60;;;;;;;18.55;100.00;98888.19;5066653;28;20211;-71
2022/09/28 00:10:09;;;;;;;0.70;0.70;;;;;;;18.43;100.00;98862.34;5066184;28;20300;-71
2022/09/28 00:12:36;;;;;;;0.70;0.70;;;;;;;18.47;100.00;98879.69;5066152;28;20638;-71
2022/09/28 00:15:04;;;;;;;1.60;0.90;;;;;;;18.44;100.00;98879.81;5066116;28;20202;-71
2022/09/28 00:17:31;;;;;;;1.05;0.80;;;;;;;18.39;100.00;98876.50;5065688;28;20203;-71
2022/09/28 00:19:59;;;;;;;0.70;0.70;;;;;;;18.48;100.00;98878.78;5065426;28;20213;-71
2022/09/28 00:22:25;;;;;;;0.73;0.70;;;;;;;18.41;100.00;98880.75;5065919;28;20226;-71
2022/09/28 00:24:52;;;;;;;1.77;1.08;;;;;;;18.03;100.00;98816.53;5047971;28;20616;-71
2022/09/28 00:27:19;;;;;;;0.80;0.70;;;;;;;18.51;100.00;98892.69;5068231;28;20203;-71
2022/09/28 00:29:46;;;;;;;0.60;0.60;;;;;;;18.39;100.00;98869.47;5065345;28;20237;-71
2022/09/28 00:32:14;;;;;;;0.63;0.63;;;;;;;18.73;100.00;98904.09;5068635;28;21390;-72
2022/09/28 00:34:44;;;;;;;0.60;0.60;;;;;;;18.73;100.00;98903.25;5066041;28;20225;-72
2022/09/28 00:37:14;;;;;;;1.67;1.23;;;;;;;18.83;100.00;98909.91;5065192;28;20282;-71
2022/09/28 00:39:42;;;;;;;0.73;0.68;;;;;;;18.79;100.00;98908.28;5065053;28;20206;-71
2022/09/28 00:42:14;;;;;;;0.75;0.75;;;;;;;18.75;100.00;98880.44;5065494;28;20209;-71
2022/09/28 00:44:50;;;;;;;0.52;0.52;;;;;;;18.93;100.00;98900.75;5065593;28;20222;-71
2022/09/28 00:47:40;;;;;;;1.55;0.90;;;;;;;18.89;100.00;98893.91;5065541;28;20201;-71
2022/09/28 00:50:18;;;;;;;0.60;0.60;;;;;;;18.82;100.00;98892.41;5069339;28;20694;-71
2022/09/28 00:52:52;;;;;;;0.60;0.60;;;;;;;18.75;100.00;98878.66;5064921;28;20252;-71
2022/09/28 00:55:22;;;;;;;0.80;0.80;;;;;;;18.27;100.00;98799.06;5069080;28;20282;-71
2022/09/28 00:57:54;;;;;;;0.70;0.70;;;;;;;18.75;100.00;98880.44;5065945;28;20590;-71
2022/09/28 01:00:21;;;;;;;0.80;0.80;;;;;;;18.66;100.00;98883.38;5070998;28;20199;-71
2022/09/28 01:02:48;;;;;;;0.60;0.60;;;;;;;18.64;100.00;98885.22;5045619;28;20209;-71
2022/09/28 01:05:17;;;;;;;0.90;0.70;;;;;;;18.71;100.00;98886.72;5065066;28;20217;-71
2022/09/28 01:07:48;;;;;;;0.60;0.60;;;;;;;18.71;100.00;98878.81;5064505;28;20206;-71
2022/09/28 01:10:15;;;;;;;0.60;0.60;;;;;;;18.56;100.00;98863.63;5064909;28;20661;-71
2022/09/28 01:12:42;;;;;;;0.70;0.70;;;;;;;18.64;100.00;98874.72;5064978;28;20549;-71
2022/09/28 01:15:10;;;;;;;0.73;0.70;;;;;;;18.62;100.00;98873.94;5064613;28;20202;-71
2022/09/28 01:17:51;;;;;;;0.60;0.60;;;;;;;18.66;100.00;98880.75;5064823;28;20199;-71
2022/09/28 01:20:34;;;;;;;0.75;0.70;;;;;;;18.72;100.00;98872.66;5065164;28;20776;-71
2022/09/28 01:23:44;;;;;;;0.60;0.60;;;;;;;18.69;100.00;98871.00;5064945;28;20199;-71
2022/09/28 01:26:30;;;;;;;0.95;0.70;;;;;;;18.61;100.00;98872.22;5064006;28;20325;-71
2022/09/28 01:29:04;;;;;;;0.52;0.52;;;;;;;18.52;100.00;98865.50;5064171;28;20222;-71
2022/09/28 01:31:35;;;;;;;0.73;0.70;;;;;;;18.28;100.00;98833.13;5064364;28;20206;-71
2022/09/28 01:34:10;;;;;;;0.60;0.60;;;;;;;18.58;100.00;98872.31;5064410;28;20286;-71
2022/09/28 01:36:43;;;;;;;0.70;0.70;;;;;;;18.59;100.00;98879.28;5064682;28;20643;-71
2022/09/28 01:39:15;;;;;;;0.73;0.63;;;;;;;18.50;100.00;98875.19;5064660;28;20210;-71
2022/09/28 01:41:48;;;;;;;0.50;0.50;;;;;;;18.41;100.00;98869.44;5063354;28;20575;-72
2022/09/28 01:44:19;;;;;;;0.60;0.60;;;;;;;18.34;100.00;98874.00;5064015;28;21807;-71
2022/09/28 01:46:48;;;;;;;0.70;0.70;;;;;;;18.36;100.00;98872.22;5064245;28;20218;-72
2022/09/28 01:49:19;;;;;;;0.60;0.60;;;;;;;18.29;100.00;98866.34;5065423;28;20238;-71
2022/09/28 01:51:52;;;;;;;0.60;0.60;;;;;;;18.40;100.00;98872.97;5066041;28;20198;-71
2022/09/28 01:54:25;;;;;;;0.50;0.50;;;;;;;18.23;100.00;98856.03;5063729;28;20202;-72
2022/09/28 01:56:57;;;;;;;0.60;0.60;;;;;;;18.38;100.00;98885.25;5027734;28;20666;-72
2022/09/28 01:59:28;;;;;;;0.70;0.70;;;;;;;18.41;100.00;98885.19;5063722;28;20202;-72
2022/09/28 02:02:03;;;;;;;0.70;0.68;;;;;;;18.47;100.00;98901.56;5064259;28;20671;-72
2022/09/28 02:04:35;;;;;;;0.85;0.70;;;;;;;18.48;100.00;98902.41;5029295;28;20194;-71
2022/09/28 02:07:07;;;;;;;0.70;0.63;;;;;;;18.32;100.00;98876.72;5063866;28;20206;-72
2022/09/28 02:09:38;;;;;;;0.60;0.60;;;;;;;18.37;100.00;98878.31;5044425;28;20220;-72
2022/09/28 02:12:13;;;;;;;1.08;0.70;;;;;;;18.64;100.00;98906.22;5063600;28;20211;-71
2022/09/28 02:14:44;;;;;;;0.50;0.50;;;;;;;18.70;100.00;98913.88;5063649;28;20210;-72
2022/09/28 02:17:12;;;;;;;0.60;0.60;;;;;;;18.53;100.00;98884.75;5063559;28;20209;-72
2022/09/28 02:19:40;;;;;;;0.60;0.60;;;;;;;18.74;100.00;98913.72;5064212;28;20206;-72
2022/09/28 02:22:22;;;;;;;0.60;0.60;;;;;;;18.65;100.00;98894.81;5044460;28;20278;-72
2022/09/28 02:24:55;;;;;;;0.50;0.50;;;;;;;18.50;100.00;98884.84;5064815;28;20198;-72
2022/09/28 02:27:31;;;;;;;0.60;0.60;;;;;;;18.41;100.00;98880.75;5068160;28;20222;-71
2022/09/28 02:29:58;;;;;;;0.60;0.60;;;;;;;18.03;100.00;98866.38;5070222;28;20214;-71
2022/09/28 02:32:27;;;;;;;0.60;0.60;;;;;;;18.19;100.00;98890.31;5068428;28;20202;-71
2022/09/28 02:34:55;;;;;;;0.70;0.70;;;;;;;18.22;100.00;98893.69;5050415;28;20207;-71
2022/09/28 02:37:22;;;;;;;0.60;0.60;;;;;;;18.18;100.00;98894.72;5064892;28;20199;-71
2022/09/28 02:39:49;;;;;;;0.70;0.70;;;;;;;18.03;100.00;98874.25;5046766;28;20203;-71
2022/09/28 02:42:22;;;;;;;0.80;0.65;;;;;;;18.34;100.00;98911.63;5066983;28;20207;-71
2022/09/28 02:45:12;;;;;;;0.57;0.57;;;;;;;18.44;100.00;98906.06;5043284;28;20194;-71
2022/09/28 02:47:56;;;;;;;0.57;0.57;;;;;;;18.43;100.00;98904.34;5062800;28;20692;-71
2022/09/28 02:50:34;;;;;;;1.00;0.75;;;;;;;18.54;100.00;98920.59;5065651;28;20357;-71
2022/09/28 02:53:25;;;;;;;1.65;0.85;;;;;;;18.55;100.00;98919.69;5062787;28;20218;-71
2022/09/28 02:56:13;;;;;;;0.60;0.60;;;;;;;18.54;100.00;98920.59;5063166;28;20337;-72
2022/09/28 02:58:53;;;;;;;0.50;0.50;;;;;;;18.33;100.00;98907.28;5065633;28;20202;-71
2022/09/28 03:01:30;;;;;;;1.05;0.88;;;;;;;18.44;100.00;98922.66;5062326;28;20661;-71
2022/09/28 03:04:03;;;;;;;0.60;0.60;;;;;;;18.43;100.00;98920.09;5063290;28;20203;-72
2022/09/28 03:06:37;;;;;;;1.05;0.70;;;;;;;18.36;100.00;98923.84;5063270;28;20581;-71
2022/09/28 03:09:10;;;;;;;0.80;0.80;;;;;;;18.32;100.00;98929.19;5063005;28;20345;-71
2022/09/28 03:11:43;;;;;;;1.08;0.70;;;;;;;18.33;100.00;98940.56;5065121;28;20707;-69
2022/09/28 03:14:10;;;;;;;0.73;0.50;;;;;;;18.37;100.00;98938.69;5064882;28;21067;-71
2022/09/28 03:16:43;;;;;;;0.60;0.60;;;;;;;18.46;100.00;98940.97;5063609;28;20199;-71
2022/09/28 03:19:11;;;;;;;0.90;0.60;;;;;;;18.41;100.00;98943.75;5062343;28;20449;-71
2022/09/28 03:21:37;;;;;;;0.60;0.60;;;;;;;18.50;100.00;98953.09;5062954;28;20211;-71
2022/09/28 03:24:05;;;;;;;2.10;0.93;;;;;;;18.43;100.00;98948.97;5043360;28;20206;-72
2022/09/28 03:26:32;;;;;;;0.60;0.57;;;;;;;18.20;100.00;98940.09;5064568;28;20222;-71
2022/09/28 03:28:59;;;;;;;0.65;0.65;;;;;;;18.10;100.00;98951.81;5065078;28;20210;-71
2022/09/28 03:31:25;;;;;;;0.60;0.60;;;;;;;18.13;100.00;98951.72;5062974;28;20211;-71
2022/09/28 03:33:54;;;;;;;0.50;0.50;;;;;;;18.08;100.00;98948.41;5062246;28;20207;-72
2022/09/28 03:36:21;;;;;;;0.75;0.70;;;;;;;18.04;100.00;98949.41;5062796;28;21782;-72
2022/09/28 03:38:48;;;;;;;0.60;0.60;;;;;;;18.03;100.00;98960.81;5063518;28;20203;-72
2022/09/28 03:41:15;;;;;;;0.52;0.52;;;;;;;18.13;100.00;98970.06;5026706;28;20210;-72
2022/09/28 03:43:41;;;;;;;0.70;0.70;;;;;;;18.18;100.00;98964.69;5062851;28;20202;-72
2022/09/28 03:46:08;;;;;;;1.17;1.02;;;;;;;18.14;100.00;98974.44;5062885;28;20214;-72
2022/09/28 03:48:36;;;;;;;0.60;0.60;;;;;;;18.00;100.00;98965.28;5063779;28;20210;-72
2022/09/28 03:51:08;;;;;;;0.70;0.70;;;;;;;17.97;100.00;98968.88;5027656;28;20218;-71
2022/09/28 03:53:35;;;;;;;0.60;0.60;;;;;;;17.89;100.00;98956.91;5066322;28;20199;-72
2022/09/28 03:56:06;;;;;;;0.50;0.50;;;;;;;18.20;100.00;98976.84;5062751;28;20714;-71
2022/09/28 03:58:33;;;;;;;0.60;0.60;;;;;;;17.99;100.00;98946.06;5065693;28;21009;-72
2022/09/28 04:01:03;;;;;;;2.08;0.82;;;;;;;18.06;100.00;98965.94;5062364;28;20674;-72
2022/09/28 04:03:30;;;;;;;0.50;0.50;;;;;;;17.87;100.00;98962.22;5063277;28;20201;-72
2022/09/28 04:05:57;;;;;;;0.88;0.73;;;;;;;17.74;100.00;98950.41;5066244;28;20203;-71
2022/09/28 04:08:25;;;;;;;1.15;0.75;;;;;;;17.69;100.00;98954.94;5065524;28;20252;-72
2022/09/28 04:10:52;;;;;;;0.70;0.70;;;;;;;17.48;100.00;98953.78;5065811;28;20233;-72
2022/09/28 04:13:19;;;;;;;0.60;0.60;;;;;;;17.43;100.00;98954.84;5067555;28;20195;-72
2022/09/28 04:15:53;;;;;;;0.70;0.70;;;;;;;17.47;100.00;98938.13;5065747;28;20209;-74
2022/09/28 04:18:20;;;;;;;0.65;0.65;;;;;;;17.14;100.00;98943.50;5067150;28;20198;-74
2022/09/28 04:20:47;;;;;;;0.57;0.57;;;;;;;17.39;100.00;98958.47;5029991;28;20214;-72
2022/09/28 04:23:14;;;;;;;0.60;0.60;;;;;;;17.71;100.00;98966.22;5065437;28;20821;-71
2022/09/28 04:25:44;;;;;;;0.90;0.90;;;;;;;18.26;100.00;98987.13;5066302;28;20203;-71
2022/09/28 04:30:56;;;;;;;1.48;0.80;;;;;;;18.57;100.00;98994.00;5065466;28;20277;-71
2022/09/28 04:33:22;;;;;;;0.60;0.60;;;;;;;18.73;100.00;99003.03;5066208;28;20223;-72
2022/09/28 04:35:49;;;;;;;1.33;0.73;;;;;;;18.88;97.80;99004.25;5065995;28;20201;-71
2022/09/28 04:38:16;;;;;;;2.45;0.95;;;;;;;18.97;96.00;99003.94;5066020;28;20207;-71
2022/09/28 04:40:44;;;;;;;1.40;0.80;;;;;;;19.17;93.83;99015.44;5065331;28;20210;-72
2022/09/28 04:43:11;;;;;;;0.68;0.60;;;;;;;19.21;92.11;99014.41;5045791;28;20264;-71
2022/09/28 04:45:37;;;;;;;0.70;0.70;;;;;;;19.23;91.82;99019.59;5065950;28;20210;-71
2022/09/28 04:48:06;;;;;;;0.80;0.68;;;;;;;19.36;91.01;99022.66;5066222;28;20201;-72
2022/09/28 04:50:33;;;;;;;0.85;0.85;;;;;;;19.37;89.71;99013.84;5067962;28;20233;-71
2022/09/28 04:53:00;;;;;;;0.50;0.50;;;;;;;19.44;88.44;99010.13;5065456;28;20202;-72
2022/09/28 04:55:31;;;;;;;0.60;0.60;;;;;;;19.47;88.00;99015.25;5066607;28;20218;-71
2022/09/28 04:58:01;;;;;;;0.60;0.60;;;;;;;19.49;88.06;99023.91;5070425;28;20199;-71
2022/09/28 05:00:28;;;;;;;1.75;0.88;;;;;;;19.43;88.62;99022.41;5065287;28;21076;-71
2022/09/28 05:02:55;;;;;;;0.60;0.60;;;;;;;19.51;87.97;99008.97;5065335;28;20202;-71
2022/09/28 05:05:22;;;;;;;0.77;0.70;;;;;;;19.46;87.99;99018.78;5064438;28;20191;-71
2022/09/28 05:07:48;;;;;;;0.63;0.63;;;;;;;19.50;87.79;99026.50;5073783;28;20208;-70
2022/09/28 05:10:16;;;;;;;0.60;0.60;;;;;;;19.54;87.71;99029.88;5074965;28;20229;-69
2022/09/28 05:12:42;;;;;;;1.08;0.80;;;;;;;19.51;88.17;99024.75;5087341;28;20206;-69
2022/09/28 05:15:11;;;;;;;0.70;0.70;;;;;;;19.63;88.45;99017.22;5091745;28;20194;-69
2022/09/28 05:17:38;;;;;;;0.60;0.60;;;;;;;19.65;87.19;99022.44;5077839;28;20233;-69
2022/09/28 05:20:06;;;;;;;1.10;0.80;;;;;;;19.67;87.44;99023.22;5083268;28;20202;-68
2022/09/28 05:22:33;;;;;;;1.33;1.00;;;;;;;19.75;86.72;99023.78;5079369;28;20202;-69
2022/09/28 05:25:01;;;;;;;2.05;0.82;;;;;;;19.80;85.90;99017.41;5082917;28;20729;-70
2022/09/28 05:27:28;;;;;;;1.48;0.90;;;;;;;19.81;86.18;99028.81;5092049;28;20701;-70
2022/09/28 05:29:55;;;;;;;0.52;0.52;;;;;;;19.81;85.81;99023.53;5080340;28;20241;-69
2022/09/28 05:32:23;;;;;;;0.70;0.70;;;;;;;19.84;86.17;99017.28;5077208;28;20226;-69
2022/09/28 05:34:50;;;;;;;0.95;0.70;;;;;;;19.81;85.11;99023.53;5063896;28;20217;-69
2022/09/28 05:37:17;;;;;;;0.98;0.75;;;;;;;19.85;84.95;99027.75;5078453;28;20210;-69
2022/09/28 05:39:43;;;;;;;0.60;0.60;;;;;;;19.80;84.14;99016.56;5089178;28;20202;-68
2022/09/28 05:42:10;;;;;;;0.60;0.60;;;;;;;19.98;83.78;99036.00;5088346;28;20206;-69
2022/09/28 05:44:37;;;;;;;0.60;0.60;;;;;;;20.03;82.96;99032.31;5089177;28;20197;-69
2022/09/28 05:47:04;;;;;;;0.50;0.50;;;;;;;20.16;81.96;99032.66;5079807;28;20206;-69
2022/09/28 05:49:32;;;;;;;0.85;0.70;;;;;;;20.27;81.52;99031.34;5090801;28;20202;-70
2022/09/28 05:51:59;;;;;;;0.52;0.52;;;;;;;20.20;80.57;99043.00;5078147;28;20222;-70
2022/09/28 05:54:25;;;;;;;0.93;0.70;;;;;;;20.23;80.81;99031.47;5091573;28;20202;-69
2022/09/28 05:56:52;;;;;;;0.60;0.60;;;;;;;20.37;80.49;99036.25;5091090;28;20233;-69
2022/09/28 05:59:19;;;;;;;0.60;0.60;;;;;;;20.42;80.71;99024.56;5091511;28;20221;-69
2022/09/28 06:01:45;;;;;;;1.40;0.80;;;;;;;20.37;79.93;99013.38;5091138;28;20202;-69
2022/09/28 06:04:14;;;;;;;0.60;0.60;;;;;;;20.16;79.43;98957.19;5091408;28;20206;-69
2022/09/28 06:06:43;;;;;;;0.50;0.50;;;;;;;20.73;78.33;99038.16;5091304;28;20230;-70
2022/09/28 06:09:10;;;;;;;0.60;0.60;;;;;;;20.79;78.55;99047.59;5091328;28;20202;-69
2022/09/28 06:11:36;;;;;;;0.70;0.70;;;;;;;20.80;77.87;99048.47;5071415;28;20229;-69
2022/09/28 06:14:04;;;;;;;0.60;0.60;;;;;;;20.85;78.85;99057.84;5077608;28;20213;-69
2022/09/28 06:16:30;;;;;;;2.90;1.27;;;;;;;20.84;77.85;99053.50;5090918;28;20251;-69
2022/09/28 06:18:57;;;;;;;3.35;1.10;;;;;;;20.90;78.35;99055.03;5076356;28;20202;-69
2022/09/28 06:21:24;;;;;;;0.60;0.60;;;;;;;20.99;76.26;99059.91;5045286;28;20279;-69
2022/09/28 06:23:52;;;;;;;0.60;0.60;;;;;;;21.07;75.20;99066.56;5087045;28;20213;-69
2022/09/28 06:26:19;;;;;;;0.60;0.60;;;;;;;21.10;74.02;99063.81;5090634;28;20202;-69
2022/09/28 06:28:46;;;;;;;0.63;0.63;;;;;;;21.17;74.53;99062.63;5090755;28;20202;-69
2022/09/28 06:31:12;;;;;;;0.60;0.60;;;;;;;21.19;74.44;99068.66;5090911;28;20287;-69
2022/09/28 06:33:40;;;;;;;0.68;0.68;;;;;;;21.25;73.08;99073.69;5090695;28;20202;-69
2022/09/28 06:36:08;;;;;;;0.60;0.60;;;;;;;21.39;72.21;99082.75;5090788;28;20194;-69
2022/09/28 06:38:35;;;;;;;0.60;0.60;;;;;;;21.35;71.97;99083.81;5090949;28;20202;-69
2022/09/28 06:41:03;;;;;;;0.60;0.60;;;;;;;21.55;71.16;99095.19;5090624;28;20247;-69
2022/09/28 06:43:30;;;;;;;0.60;0.60;;;;;;;21.54;72.47;99090.84;5090778;28;20198;-70
2022/09/28 06:45:57;;;;;;;0.50;0.50;;;;;;;21.53;72.20;99101.47;5090527;28;20205;-69
2022/09/28 06:48:23;;;;;;;0.52;0.52;;;;;;;21.49;73.44;99090.19;5090836;28;20198;-68
2022/09/28 06:50:50;;;;;;;0.50;0.50;;;;;;;21.29;74.17;99060.38;5090528;28;20267;-70
2022/09/28 06:53:17;;;;;;;0.63;0.63;;;;;;;21.56;74.71;99098.69;5090581;28;20206;-69
2022/09/28 06:55:47;;;;;;;0.52;0.52;;;;;;;21.51;76.13;99105.97;5041643;28;20238;-69
2022/09/28 06:58:18;;;;;;;0.60;0.60;;;;;;;21.52;73.67;99102.38;5084230;28;20195;-69
2022/09/28 07:00:45;;;;;;;0.60;0.60;;;;;;;21.54;75.22;99100.53;5062956;28;20224;-69
2022/09/28 07:03:14;;;;;;;0.70;0.70;;;;;;;21.56;74.19;99110.09;5090233;28;20198;-69
2022/09/28 07:05:43;;;;;;;0.60;0.60;;;;;;;21.69;73.84;99107.72;5090534;28;20210;-70
2022/09/28 07:08:10;;;;;;;0.60;0.60;;;;;;;21.44;73.38;99105.34;5076224;28;20194;-69
2022/09/28 07:10:42;;;;;;;0.60;0.60;;;;;;;21.58;72.43;99107.41;5081091;28;20230;-69
2022/09/28 07:13:08;;;;;;;1.27;0.75;;;;;;;21.53;73.03;99107.59;5086314;28;20213;-69
2022/09/28 07:15:37;;;;;;;0.50;0.50;;;;;;;21.50;68.67;99088.41;5090363;28;20194;-69
2022/09/28 07:18:05;;;;;;;0.70;0.70;;;;;;;21.69;73.91;99105.09;5090188;28;20245;-70
2022/09/28 07:20:33;;;;;;;0.50;0.50;;;;;;;21.62;71.02;99088.69;5090255;28;20209;-70
2022/09/28 07:23:01;;;;;;;0.60;0.60;;;;;;;21.88;70.30;99120.94;5090157;28;20230;-69
2022/09/28 07:25:30;;;;;;;0.60;0.60;;;;;;;21.74;73.08;99103.13;5088666;28;20685;-69
2022/09/28 07:27:58;;;;;;;2.10;0.88;;;;;;;21.69;74.62;99111.22;5078497;28;20194;-70
2022/09/28 07:30:26;;;;;;;1.45;0.80;;;;;;;21.81;74.46;99120.38;5054026;28;20289;-70
2022/09/28 07:32:54;;;;;;;1.20;0.73;;;;;;;21.99;76.17;99122.19;5076747;28;20257;-70
2022/09/28 07:35:21;;;;;;;1.65;0.80;;;;;;;21.93;77.03;99119.84;5090166;28;20206;-70
2022/09/28 07:37:48;;;;;;;0.75;0.70;;;;;;;21.98;78.51;99123.13;5054245;28;20267;-71
2022/09/28 07:43:04;;;;;;;1.85;0.85;;;;;;;22.28;77.33;99104.13;5093902;28;20308;-71
2022/09/28 07:45:35;;;;;;;0.60;0.60;;;;;;;22.29;76.24;99114.63;5094193;28;20281;-70
2022/09/28 07:48:04;;;;;;;0.70;0.70;;;;;;;22.43;74.10;99116.59;5057744;28;20266;-72
2022/09/28 07:50:31;;;;;;;1.70;0.80;;;;;;;22.42;73.93;99112.22;5093827;28;20206;-71
2022/09/28 07:52:59;;;;;;;0.65;0.65;;;;;;;22.44;72.31;99116.50;5093946;28;20202;-72
2022/09/28 07:55:26;;;;;;;0.60;0.60;;;;;;;22.41;72.25;99107.88;5094016;28;20226;-73
2022/09/28 07:57:58;;;;;;;0.57;0.57;;;;;;;22.59;72.20;99115.75;5093790;28;20194;-72
2022/09/28 08:00:25;;;;;;;0.60;0.60;;;;;;;22.41;70.99;99110.50;5058022;28;20290;-68
2022/09/28 08:02:52;;;;;;;0.55;0.55;;;;;;;22.58;73.13;99113.22;5079464;28;20211;-68
2022/09/28 08:05:20;;;;;;;0.57;0.57;;;;;;;22.66;72.40;99103.09;5050483;28;20211;-68
2022/09/28 08:07:47;;;;;;;0.60;0.60;;;;;;;22.63;70.22;99100.59;5087747;28;20280;-68
2022/09/28 08:10:15;;;;;;;0.80;0.75;;;;;;;22.69;65.39;99093.25;5065660;28;20190;-69
2022/09/28 08:12:42;;;;;;;0.70;0.70;;;;;;;22.79;64.10;99112.19;5093453;28;20586;-67
2022/09/28 08:15:10;;;;;;;0.70;0.70;;;;;;;22.85;62.94;99122.44;5078929;28;20666;-68
2022/09/28 08:17:37;;;;;;;0.52;0.52;;;;;;;22.70;62.30;99104.69;5093541;28;20221;-68
2022/09/28 08:22:50;;;;;;;0.70;0.70;;;;;;;22.94;61.44;99119.31;5068647;28;20225;-68
2022/09/28 08:25:17;;;;;;;2.72;1.02;;;;;;;22.99;60.64;99119.94;5093027;28;20206;-68
2022/09/28 08:27:43;;;;;;;1.08;0.80;;;;;;;22.96;60.75;99114.81;5079392;28;20202;-68
2022/09/28 08:30:11;;;;;;;1.15;0.75;;;;;;;23.00;58.90;99111.09;5073924;28;20202;-68
2022/09/28 08:32:38;;;;;;;1.40;0.90;;;;;;;23.06;59.56;99113.41;5093066;28;20275;-68
2022/09/28 08:35:05;;;;;;;0.60;0.60;;;;;;;23.10;59.28;99116.75;5093106;28;20206;-68
2022/09/28 08:37:32;;;;;;;0.60;0.60;;;;;;;23.19;59.74;99110.97;5093064;28;20259;-70
2022/09/28 08:40:00;;;;;;;0.60;0.60;;;;;;;23.41;57.96;99108.06;5092769;28;20202;-71
2022/09/28 08:42:34;;;;;;;0.60;0.60;;;;;;;23.55;58.05;99113.53;5092930;28;20202;-70
2022/09/28 08:45:07;;;;;;;0.57;0.57;;;;;;;23.53;58.27;99112.75;5092996;28;20717;-67
2022/09/28 08:50:32;;;;;;;0.50;0.50;;;;;;;23.51;58.88;99114.59;5092416;28;20214;-68
2022/09/28 08:53:05;;;;;;;0.98;0.80;;;;;;;23.54;56.67;99119.78;5092672;28;20199;-68
2022/09/28 08:55:37;;;;;;;0.60;0.60;;;;;;;23.62;56.81;99121.06;5092795;28;20374;-68
2022/09/28 08:58:11;;;;;;;0.60;0.60;;;;;;;23.69;57.85;99110.97;5092619;28;20198;-68
2022/09/28 09:00:42;;;;;;;0.65;0.65;;;;;;;23.75;57.15;99121.25;5092354;28;20259;-67
2022/09/28 09:03:13;;;;;;;1.45;0.90;;;;;;;23.79;55.34;99122.81;5092278;28;20206;-68
2022/09/28 09:05:52;;;;;;;0.50;0.50;;;;;;;23.89;55.06;99117.88;5092382;28;20267;-67
2022/09/28 09:08:31;;;;;;;0.60;0.60;;;;;;;23.91;57.15;99115.97;5092469;28;20213;-68
2022/09/28 09:11:09;;;;;;;0.60;0.60;;;;;;;24.03;54.97;99116.19;5092436;28;20229;-68
2022/09/28 09:14:06;;;;;;;0.60;0.60;;;;;;;24.06;52.08;99118.66;5092191;28;20276;-68
2022/09/28 09:16:45;;;;;;;0.80;0.65;;;;;;;23.79;52.34;99109.56;5092313;28;20275;-68
2022/09/28 09:19:16;;;;;;;0.50;0.50;;;;;;;24.03;52.87;99120.59;5074426;28;20666;-68
2022/09/28 09:21:48;;;;;;;0.50;0.50;;;;;;;24.09;52.05;99110.53;5092136;28;20289;-68
2022/09/28 09:24:26;;;;;;;0.60;0.60;;;;;;;24.15;52.35;99094.31;5077519;28;20194;-68
2022/09/28 09:27:04;;;;;;;0.50;0.50;;;;;;;24.32;51.51;99119.03;5078956;28;20272;-68
2022/09/28 09:29:44;;;;;;;0.70;0.70;;;;;;;24.08;52.84;99114.09;5065763;28;20284;-68
2022/09/28 09:32:32;;;;;;;0.60;0.60;;;;;;;24.24;52.00;99110.66;5091578;28;20253;-75
2022/09/28 09:35:21;;;;;;;0.60;0.60;;;;;;;24.41;52.06;99100.78;5049221;28;20199;-75
2022/09/28 09:38:17;;;;;;;2.17;0.90;;;;;;;24.57;51.13;99108.75;5049120;28;20242;-75
2022/09/28 09:41:02;;;;;;;0.60;0.60;;;;;;;24.46;49.77;99103.19;5048976;28;20203;-73
2022/09/28 09:43:54;;;;;;;0.68;0.68;;;;;;;24.66;50.71;99100.25;5033426;28;20196;-71
2022/09/28 09:46:33;;;;;;;0.57;0.57;;;;;;;24.68;49.20;99104.50;5048749;28;20722;-69
2022/09/28 09:49:06;;;;;;;0.70;0.70;;;;;;;24.80;49.52;99099.44;5035639;28;20234;-69
2022/09/28 09:51:42;;;;;;;0.60;0.60;;;;;;;24.85;49.27;99103.56;5021865;28;20250;-68
2022/09/28 09:54:18;;;;;;;0.60;0.60;;;;;;;24.79;48.73;99100.41;5048869;28;20226;-72
2022/09/28 09:56:49;;;;;;;0.60;0.60;;;;;;;25.02;47.79;99106.06;5048746;28;20642;-72
2022/09/28 09:59:22;;;;;;;0.68;0.68;;;;;;;25.03;47.62;99109.59;5048524;28;20298;-69
2022/09/28 10:01:50;;;;;;;0.68;0.68;;;;;;;24.97;47.86;99094.03;5022203;28;20597;-68
2022/09/28 10:04:21;;;;;;;0.40;0.40;;;;;;;25.18;47.79;99098.06;5018887;28;20227;-70
2022/09/28 10:06:51;;;;;;;0.60;0.60;;;;;;;24.97;47.42;99097.53;5048562;28;20203;-69
2022/09/28 10:09:23;;;;;;;1.65;0.80;;;;;;;25.14;47.33;99101.84;5048628;28;21008;-68
2022/09/28 10:11:51;;;;;;;0.50;0.50;;;;;;;25.10;46.83;99103.81;5063750;28;20305;-69
2022/09/28 10:14:21;;;;;;;0.50;0.50;;;;;;;24.94;46.95;99042.00;5091500;28;20232;-70
2022/09/28 10:16:51;;;;;;;0.60;0.60;;;;;;;25.44;46.65;99107.06;5091317;28;20206;-70
2022/09/28 10:19:20;;;;;;;0.88;0.73;;;;;;;25.45;46.74;99107.00;5084389;28;20213;-70
2022/09/28 10:21:50;;;;;;;2.63;0.95;;;;;;;25.53;47.20;99101.25;5085953;28;20206;-69
2022/09/28 10:24:29;;;;;;;1.98;0.85;;;;;;;25.53;46.63;99103.91;5091005;28;20206;-70
2022/09/28 10:27:03;;;;;;;2.50;0.95;;;;;;;25.29;47.35;99081.50;5090945;28;20206;-70
2022/09/28 10:29:40;;;;;;;2.83;1.00;;;;;;;25.43;47.28;99092.97;5091063;28;20210;-69
2022/09/28 10:32:19;;;;;;;0.93;0.70;;;;;;;25.42;47.02;99074.47;5090930;28;20229;-69
2022/09/28 10:34:46;;;;;;;0.90;0.63;;;;;;;25.56;46.85;99093.94;5091042;28;20229;-69
2022/09/28 10:37:13;;;;;;;1.15;0.77;;;;;;;25.45;46.57;99074.28;5090966;28;20202;-69
2022/09/28 10:39:47;;;;;;;0.63;0.63;;;;;;;25.52;45.80;99092.44;5090916;28;20582;-68
2022/09/28 10:42:20;;;;;;;0.95;0.80;;;;;;;25.61;45.95;99098.97;5091101;28;20302;-68
2022/09/28 10:44:59;;;;;;;1.38;0.77;;;;;;;25.52;46.23;99091.56;5090988;28;20675;-68
2022/09/28 10:47:29;;;;;;;0.60;0.60;;;;;;;25.70;45.32;99103.72;5077401;28;20651;-68
2022/09/28 10:49:56;;;;;;;0.98;0.70;;;;;;;25.80;45.48;99094.22;5070718;28;20194;-68
2022/09/28 10:52:38;;;;;;;0.70;0.70;;;;;;;25.79;45.91;99089.00;5070798;28;20242;-68
2022/09/28 10:55:26;;;;;;;1.25;0.80;;;;;;;25.84;45.18;99089.56;5070310;28;20227;-68
2022/09/28 10:57:52;;;;;;;2.03;0.80;;;;;;;25.71;45.53;99081.53;5070721;28;20647;-69
2022/09/28 11:00:39;;;;;;;0.60;0.60;;;;;;;25.77;45.48;99081.13;5070475;28;20238;-67
2022/09/28 11:03:17;;;;;;;1.42;1.13;;;;;;;25.57;45.27;99079.72;5070605;28;20218;-72
2022/09/28 11:05:54;;;;;;;1.98;0.85;;;;;;;25.71;45.47;99081.53;5070502;28;20198;-70
2022/09/28 11:08:26;;;;;;;0.60;0.60;;;;;;;25.71;44.86;99081.53;5070452;28;20289;-69
2022/09/28 11:11:05;;;;;;;0.65;0.65;;;;;;;26.05;44.51;99065.13;5070562;28;20207;-69
2022/09/28 11:13:48;;;;;;;0.75;0.60;;;;;;;25.70;44.54;99021.38;5071851;28;20226;-70
2022/09/28 11:16:36;;;;;;;0.70;0.70;;;;;;;25.95;45.05;99074.66;5074404;28;20203;-70
2022/09/28 11:19:05;;;;;;;0.52;0.52;;;;;;;26.04;45.84;99068.72;5074429;28;20209;-70
2022/09/28 11:21:42;;;;;;;0.60;0.60;;;;;;;26.01;46.05;99074.25;5074340;28;20643;-70
2022/09/28 11:24:24;;;;;;;0.50;0.50;;;;;;;25.95;46.55;99064.03;5074322;28;20685;-69
2022/09/28 11:26:52;;;;;;;1.35;0.75;;;;;;;26.08;45.52;99072.91;5073933;28;20230;-69
2022/09/28 11:29:26;;;;;;;0.80;0.73;;;;;;;26.32;44.54;99072.31;5074247;28;20202;-70
2022/09/28 11:32:00;;;;;;;0.95;0.73;;;;;;;26.33;44.03;99069.53;5074154;28;20226;-69
2022/09/28 11:34:34;;;;;;;0.60;0.60;;;;;;;26.48;43.84;99070.34;5074235;28;20633;-70
2022/09/28 11:37:26;;;;;;;0.60;0.60;;;;;;;26.50;42.93;99068.44;5073920;28;20668;-70
2022/09/28 11:40:04;;;;;;;0.60;0.60;;;;;;;26.30;43.43;99068.88;5074038;28;20211;-69
2022/09/28 11:42:44;;;;;;;0.70;0.70;;;;;;;26.28;43.31;99066.34;5073937;28;20662;-69
2022/09/28 11:45:27;;;;;;;0.50;0.50;;;;;;;26.40;43.50;99062.88;5073779;28;20202;-70
2022/09/28 11:47:59;;;;;;;1.40;0.82;;;;;;;26.24;43.76;99048.03;5073986;28;20206;-69
2022/09/28 11:50:39;;;;;;;1.95;0.90;;;;;;;26.36;43.50;99063.19;5073752;28;20217;-70
2022/09/28 11:53:14;;;;;;;1.85;0.90;;;;;;;26.55;43.41;99061.00;5073812;28;20227;-69
2022/09/28 11:55:45;;;;;;;0.70;0.70;;;;;;;26.53;43.29;99066.44;5054393;28;20230;-69
2022/09/28 11:58:19;;;;;;;0.77;0.70;;;;;;;26.58;42.80;99044.84;5071454;28;20232;-71